sensor_id;sensor_type;location;lat;lon;timestamp;pressure;altitude;pressure_sealevel;temperature;humidity
13867;BME280;7003;46.982;15.248;2023-03-11T00:01:08;95186.44;;;6.01;100.00
13867;BME280;7003;46.982;15.248;2023-03-11T00:03:36;95188.81;;;6.06;100.00
13867;BME280;7003;46.982;15.248;2023-03-11T00:06:06;95186.88;;;6.03;100.00
13867;BME280;7003;46.982;15.248;2023-03-11T00:08:33;95177.59;;;6.09;100.00
13867;BME280;7003;46.982;15.248;2023-03-11T00:11:01;95175.91;;;6.01;100.00
13867;BME280;7003;46.982;15.248;2023-03-11T00:13:30;95176.06;;;5.93;100.00
13867;BME280;7003;46.982;15.248;2023-03-11T00:16:00;95174.19;;;5.77;100.00
13867;BME280;7003;46.982;15.248;2023-03-11T00:18:28;95164.91;;;5.52;100.00
13867;BME280;7003;46.982;15.248;2023-03-11T00:20:57;95163.31;;;5.63;100.00
13867;BME280;7003;46.982;15.248;2023-03-11T00:23:28;95157.75;;;5.68;100.00
13867;BME280;7003;46.982;15.248;2023-03-11T00:25:58;95162.19;;;5.64;100.00
13867;BME280;7003;46.982;15.248;2023-03-11T00:28:27;95159.47;;;5.61;100.00
13867;BME280;7003;46.982;15.248;2023-03-11T00:30:58;95157.31;;;5.66;100.00
13867;BME280;7003;46.982;15.248;2023-03-11T00:33:28;95160.72;;;5.67;100.00
13867;BME280;7003;46.982;15.248;2023-03-11T00:35:55;95157.69;;;5.65;100.00
13867;BME280;7003;46.982;15.248;2023-03-11T00:38:25;95161.34;;;5.60;100.00
13867;BME280;7003;46.982;15.248;2023-03-11T00:40:52;95167.31;;;5.57;100.00
13867;BME280;7003;46.982;15.248;2023-03-11T00:43:20;95172.94;;;5.12;100.00
13867;BME280;7003;46.982;15.248;2023-03-11T00:45:47;95179.44;;;5.46;100.00
13867;BME280;7003;46.982;15.248;2023-03-11T00:48:16;95183.59;;;5.31;100.00
13867;BME280;7003;46.982;15.248;2023-03-11T00:50:43;95185.91;;;5.33;100.00
13867;BME280;7003;46.982;15.248;2023-03-11T00:53:13;95183.09;;;5.26;100.00
13867;BME280;7003;46.982;15.248;2023-03-11T00:55:44;95187.50;;;5.22;100.00
13867;BME280;7003;46.982;15.248;2023-03-11T00:58:13;95185.34;;;5.12;100.00
13867;BME280;7003;46.982;15.248;2023-03-11T01:00:40;95180.75;;;5.09;100.00
13867;BME280;7003;46.982;15.248;2023-03-11T01:03:10;95175.06;;;5.07;100.00
13867;BME280;7003;46.982;15.248;2023-03-11T01:05:40;95171.97;;;5.32;100.00
13867;BME280;7003;46.982;15.248;2023-03-11T01:08:10;95172.03;;;5.36;100.00
13867;BME280;7003;46.982;15.248;2023-03-11T01:10:38;95171.84;;;5.13;100.00
13867;BME280;7003;46.982;15.248;2023-03-11T01:13:07;95175.50;;;5.09;100.00
13867;BME280;7003;46.982;15.248;2023-03-11T01:15:35;95174.97;;;5.03;100.00
13867;BME280;7003;46.982;15.248;2023-03-11T01:18:04;95179.66;;;5.10;100.00
13867;BME280;7003;46.982;15.248;2023-03-11T01:20:34;95175.72;;;5.03;100.00
13867;BME280;7003;46.982;15.248;2023-03-11T01:23:03;95179.75;;;4.85;100.00
13867;BME280;7003;46.982;15.248;2023-03-11T01:25:30;95182.22;;;4.78;100.00
13867;BME280;7003;46.982;15.248;2023-03-11T01:27:57;95181.91;;;4.68;100.00
13867;BME280;7003;46.982;15.248;2023-03-11T01:30:26;95190.50;;;4.64;100.00
13867;BME280;7003;46.982;15.248;2023-03-11T01:32:54;95185.97;;;4.65;100.00
13867;BME280;7003;46.982;15.248;2023-03-11T01:35:26;95186.97;;;4.60;100.00
13867;BME280;7003;46.982;15.248;2023-03-11T01:37:54;95199.38;;;4.60;100.00
13867;BME280;7003;46.982;15.248;2023-03-11T01:40:27;95194.16;;;4.76;100.00
13867;BME280;7003;46.982;15.248;2023-03-11T01:42:55;95193.19;;;4.68;100.00
13867;BME280;7003;46.982;15.248;2023-03-11T01:45:38;95200.03;;;4.57;100.00
13867;BME280;7003;46.982;15.248;2023-03-11T01:48:07;95205.28;;;4.57;100.00
13867;BME280;7003;46.982;15.248;2023-03-11T01:50:39;95211.47;;;4.49;100.00
13867;BME280;7003;46.982;15.248;2023-03-11T01:53:07;95209.28;;;4.39;100.00
13867;BME280;7003;46.982;15.248;2023-03-11T01:55:37;95210.06;;;4.39;100.00
13867;BME280;7003;46.982;15.248;2023-03-11T01:58:07;95208.84;;;4.37;100.00
13867;BME280;7003;46.982;15.248;2023-03-11T02:00:36;95207.53;;;4.43;100.00
13867;BME280;7003;46.982;15.248;2023-03-11T02:03:08;95205.00;;;4.46;100.00
13867;BME280;7003;46.982;15.248;2023-03-11T02:05:39;95207.31;;;4.48;100.00
13867;BME280;7003;46.982;15.248;2023-03-11T02:08:10;95208.84;;;4.37;100.00
13867;BME280;7003;46.982;15.248;2023-03-11T02:10:41;95210.38;;;4.38;100.00
13867;BME280;7003;46.982;15.248;2023-03-11T02:13:12;95209.28;;;4.39;100.00
13867;BME280;7003;46.982;15.248;2023-03-11T02:15:41;95208.84;;;4.37;100.00
13867;BME280;7003;46.982;15.248;2023-03-11T02:18:12;95206.34;;;4.40;100.00
13867;BME280;7003;46.982;15.248;2023-03-11T02:20:46;95203.47;;;4.45;100.00
13867;BME280;7003;46.982;15.248;2023-03-11T02:23:16;95223.09;;;4.36;100.00
13867;BME280;7003;46.982;15.248;2023-03-11T02:25:53;95213.47;;;4.28;100.00
13867;BME280;7003;46.982;15.248;2023-03-11T02:28:26;95222.78;;;4.37;100.00
13867;BME280;7003;46.982;15.248;2023-03-11T02:30:54;95227.19;;;4.33;100.00
13867;BME280;7003;46.982;15.248;2023-03-11T02:33:28;95227.50;;;4.19;100.00
13867;BME280;7003;46.982;15.248;2023-03-11T02:35:57;95228.94;;;4.17;100.00
13867;BME280;7003;46.982;15.248;2023-03-11T02:38:24;95221.38;;;4.15;100.00
13867;BME280;7003;46.982;15.248;2023-03-11T02:40:53;95219.63;;;3.95;100.00
13867;BME280;7003;46.982;15.248;2023-03-11T02:43:28;95220.94;;;3.89;100.00
13867;BME280;7003;46.982;15.248;2023-03-11T02:45:58;95217.44;;;4.09;100.00
13867;BME280;7003;46.982;15.248;2023-03-11T02:48:28;95211.59;;;4.28;100.00
13867;BME280;7003;46.982;15.248;2023-03-11T02:50:56;95227.75;;;4.14;100.00
13867;BME280;7003;46.982;15.248;2023-03-11T02:53:28;95232.56;;;4.00;100.00
13867;BME280;7003;46.982;15.248;2023-03-11T02:55:58;95234.75;;;3.86;100.00
13867;BME280;7003;46.982;15.248;2023-03-11T02:58:26;95242.00;;;4.01;100.00
13867;BME280;7003;46.982;15.248;2023-03-11T03:00:54;95244.63;;;4.01;100.00
13867;BME280;7003;46.982;15.248;2023-03-11T03:03:23;95247.03;;;3.94;100.00
13867;BME280;7003;46.982;15.248;2023-03-11T03:05:50;95252.94;;;3.79;100.00
13867;BME280;7003;46.982;15.248;2023-03-11T03:08:19;95250.09;;;3.84;100.00
13867;BME280;7003;46.982;15.248;2023-03-11T03:10:46;95259.84;;;3.71;100.00
13867;BME280;7003;46.982;15.248;2023-03-11T03:13:14;95253.13;;;3.62;100.00
13867;BME280;7003;46.982;15.248;2023-03-11T03:15:42;95254.34;;;3.76;100.00
13867;BME280;7003;46.982;15.248;2023-03-11T03:18:10;95246.25;;;3.69;100.00
13867;BME280;7003;46.982;15.248;2023-03-11T03:20:39;95245.53;;;3.48;100.00
13867;BME280;7003;46.982;15.248;2023-03-11T03:23:09;95250.97;;;3.31;100.00
13867;BME280;7003;46.982;15.248;2023-03-11T03:25:41;95252.44;;;3.40;100.00
13867;BME280;7003;46.982;15.248;2023-03-11T03:28:08;95256.91;;;3.40;100.00
13867;BME280;7003;46.982;15.248;2023-03-11T03:30:36;95246.03;;;3.29;100.00
13867;BME280;7003;46.982;15.248;2023-03-11T03:33:08;95240.31;;;3.27;100.00
13867;BME280;7003;46.982;15.248;2023-03-11T03:35:39;95244.47;;;3.16;100.00
13867;BME280;7003;46.982;15.248;2023-03-11T03:38:08;95257.22;;;3.05;100.00
13867;BME280;7003;46.982;15.248;2023-03-11T03:40:36;95259.53;;;3.07;100.00
13867;BME280;7003;46.982;15.248;2023-03-11T03:43:03;95260.84;;;3.13;100.00
13867;BME280;7003;46.982;15.248;2023-03-11T03:45:31;95269.19;;;3.15;100.00
13867;BME280;7003;46.982;15.248;2023-03-11T03:48:00;95265.22;;;3.09;100.00
13867;BME280;7003;46.982;15.248;2023-03-11T03:50:31;95272.13;;;3.14;100.00
13867;BME280;7003;46.982;15.248;2023-03-11T03:53:00;95275.06;;;3.12;100.00
13867;BME280;7003;46.982;15.248;2023-03-11T03:55:30;95277.78;;;3.03;100.00
13867;BME280;7003;46.982;15.248;2023-03-11T03:57:59;95270.03;;;3.07;100.00
13867;BME280;7003;46.982;15.248;2023-03-11T04:00:26;95273.34;;;3.16;100.00
13867;BME280;7003;46.982;15.248;2023-03-11T04:02:53;95266.13;;;3.13;100.00
13867;BME280;7003;46.982;15.248;2023-03-11T04:05:22;95275.81;;;3.00;100.00
13867;BME280;7003;46.982;15.248;2023-03-11T04:07:52;95281.06;;;3.00;100.00
13867;BME280;7003;46.982;15.248;2023-03-11T04:10:19;95286.75;;;3.02;100.00
13867;BME280;7003;46.982;15.248;2023-03-11T04:12:46;95291.88;;;2.99;100.00
13867;BME280;7003;46.982;15.248;2023-03-11T04:15:14;95297.13;;;2.99;100.00
13867;BME280;7003;46.982;15.248;2023-03-11T04:17:41;95302.97;;;2.84;100.00
13867;BME280;7003;46.982;15.248;2023-03-11T04:20:11;95290.84;;;2.91;100.00
13867;BME280;7003;46.982;15.248;2023-03-11T04:22:40;95290.34;;;2.98;100.00
13867;BME280;7003;46.982;15.248;2023-03-11T04:25:11;95287.63;;;3.27;100.00
13867;BME280;7003;46.982;15.248;2023-03-11T04:27:41;95293.78;;;3.31;100.00
13867;BME280;7003;46.982;15.248;2023-03-11T04:30:11;95297.81;;;3.62;100.00
13867;BME280;7003;46.982;15.248;2023-03-11T04:32:41;95305.72;;;3.41;100.00
13867;BME280;7003;46.982;15.248;2023-03-11T04:35:08;95319.41;;;3.34;100.00
13867;BME280;7003;46.982;15.248;2023-03-11T04:37:35;95330.44;;;3.28;100.00
13867;BME280;7003;46.982;15.248;2023-03-11T04:40:03;95336.69;;;3.35;100.00
13867;BME280;7003;46.982;15.248;2023-03-11T04:42:34;95332.25;;;4.62;100.00
13867;BME280;7003;46.982;15.248;2023-03-11T04:45:04;95337.41;;;4.71;100.00
13867;BME280;7003;46.982;15.248;2023-03-11T04:47:34;95343.31;;;4.56;100.00
13867;BME280;7003;46.982;15.248;2023-03-11T04:50:04;95346.81;;;4.23;100.00
13867;BME280;7003;46.982;15.248;2023-03-11T04:52:31;95340.34;;;4.70;100.00
13867;BME280;7003;46.982;15.248;2023-03-11T04:55:00;95334.91;;;5.15;100.00
13867;BME280;7003;46.982;15.248;2023-03-11T04:57:30;95322.03;;;5.13;100.00
13867;BME280;7003;46.982;15.248;2023-03-11T04:59:59;95326.00;;;6.03;100.00
13867;BME280;7003;46.982;15.248;2023-03-11T05:06:16;95325.72;;;5.92;100.00
13867;BME280;7003;46.982;15.248;2023-03-11T05:08:44;95323.69;;;5.73;100.00
13867;BME280;7003;46.982;15.248;2023-03-11T05:11:13;95336.25;;;5.92;91.45
13867;BME280;7003;46.982;15.248;2023-03-11T05:13:42;95341.38;;;5.73;92.40
13867;BME280;7003;46.982;15.248;2023-03-11T05:16:11;95356.59;;;5.92;90.77
13867;BME280;7003;46.982;15.248;2023-03-11T05:18:39;95360.06;;;5.80;87.73
13867;BME280;7003;46.982;15.248;2023-03-11T05:21:08;95364.16;;;5.65;96.98
13867;BME280;7003;46.982;15.248;2023-03-11T05:23:36;95358.34;;;5.72;88.28
13867;BME280;7003;46.982;15.248;2023-03-11T05:26:05;95367.63;;;5.81;76.72
13867;BME280;7003;46.982;15.248;2023-03-11T05:28:34;95360.81;;;5.80;76.58
13867;BME280;7003;46.982;15.248;2023-03-11T05:31:08;95366.75;;;5.77;80.53
13867;BME280;7003;46.982;15.248;2023-03-11T05:33:41;95345.38;;;5.95;69.00
13867;BME280;7003;46.982;15.248;2023-03-11T05:36:12;95349.00;;;6.18;67.50
13867;BME280;7003;46.982;15.248;2023-03-11T05:38:42;95365.41;;;5.96;69.82
13867;BME280;7003;46.982;15.248;2023-03-11T05:41:11;95367.94;;;5.92;69.00
13867;BME280;7003;46.982;15.248;2023-03-11T05:43:41;95373.75;;;6.13;65.88
13867;BME280;7003;46.982;15.248;2023-03-11T05:46:11;95387.28;;;5.84;73.12
13867;BME280;7003;46.982;15.248;2023-03-11T05:48:42;95377.31;;;6.05;65.03
13867;BME280;7003;46.982;15.248;2023-03-11T05:51:11;95369.25;;;6.14;64.31
13867;BME280;7003;46.982;15.248;2023-03-11T05:53:43;95377.91;;;5.99;69.23
13867;BME280;7003;46.982;15.248;2023-03-11T05:56:17;95369.75;;;6.04;64.31
13867;BME280;7003;46.982;15.248;2023-03-11T05:58:48;95384.06;;;6.03;68.25
13867;BME280;7003;46.982;15.248;2023-03-11T06:01:22;95364.63;;;5.95;65.80
13867;BME280;7003;46.982;15.248;2023-03-11T06:04:03;95374.50;;;5.98;63.00
13867;BME280;7003;46.982;15.248;2023-03-11T06:06:33;95360.38;;;6.22;61.71
13867;BME280;7003;46.982;15.248;2023-03-11T06:09:05;95362.69;;;6.24;62.77
13867;BME280;7003;46.982;15.248;2023-03-11T06:11:35;95362.88;;;6.31;60.51
13867;BME280;7003;46.982;15.248;2023-03-11T06:14:04;95353.25;;;6.38;60.77
13867;BME280;7003;46.982;15.248;2023-03-11T06:16:35;95368.31;;;6.38;59.41
13867;BME280;7003;46.982;15.248;2023-03-11T06:19:08;95361.34;;;6.45;59.75
13867;BME280;7003;46.982;15.248;2023-03-11T06:21:38;95374.03;;;6.40;59.34
13867;BME280;7003;46.982;15.248;2023-03-11T06:24:08;95370.63;;;6.24;62.32
13867;BME280;7003;46.982;15.248;2023-03-11T06:26:38;95366.44;;;6.38;57.83
13867;BME280;7003;46.982;15.248;2023-03-11T06:29:13;95372.00;;;6.33;58.24
13867;BME280;7003;46.982;15.248;2023-03-11T06:31:43;95382.63;;;6.37;60.17
13867;BME280;7003;46.982;15.248;2023-03-11T06:34:15;95382.81;;;6.44;57.66
13867;BME280;7003;46.982;15.248;2023-03-11T06:36:44;95380.25;;;6.47;56.72
13867;BME280;7003;46.982;15.248;2023-03-11T06:39:15;95385.28;;;6.52;59.03
13867;BME280;7003;46.982;15.248;2023-03-11T06:41:44;95400.44;;;6.55;56.62
13867;BME280;7003;46.982;15.248;2023-03-11T06:44:17;95399.75;;;6.58;56.55
13867;BME280;7003;46.982;15.248;2023-03-11T06:46:47;95404.81;;;6.64;54.40
13867;BME280;7003;46.982;15.248;2023-03-11T06:49:18;95404.47;;;6.65;52.69
13867;BME280;7003;46.982;15.248;2023-03-11T06:51:48;95410.75;;;6.76;55.66
13867;BME280;7003;46.982;15.248;2023-03-11T06:54:22;95407.19;;;6.69;55.04
13867;BME280;7003;46.982;15.248;2023-03-11T06:56:50;95420.06;;;6.70;53.01
13867;BME280;7003;46.982;15.248;2023-03-11T06:59:19;95420.13;;;6.74;56.16
13867;BME280;7003;46.982;15.248;2023-03-11T07:01:48;95420.31;;;6.81;52.72
13867;BME280;7003;46.982;15.248;2023-03-11T07:04:19;95419.00;;;6.75;55.22
13867;BME280;7003;46.982;15.248;2023-03-11T07:06:50;95428.66;;;6.83;51.02
13867;BME280;7003;46.982;15.248;2023-03-11T07:09:23;95426.88;;;6.71;53.77
13867;BME280;7003;46.982;15.248;2023-03-11T07:11:53;95435.63;;;6.75;52.36
13867;BME280;7003;46.982;15.248;2023-03-11T07:14:22;95436.41;;;6.76;51.87
13867;BME280;7003;46.982;15.248;2023-03-11T07:16:53;95450.91;;;6.82;52.53
13867;BME280;7003;46.982;15.248;2023-03-11T07:19:25;95447.16;;;6.83;56.03
13867;BME280;7003;46.982;15.248;2023-03-11T07:21:54;95458.59;;;6.87;54.70
13867;BME280;7003;46.982;15.248;2023-03-11T07:24:25;95446.91;;;6.88;51.48
13867;BME280;7003;46.982;15.248;2023-03-11T07:26:56;95460.28;;;6.95;51.13
13867;BME280;7003;46.982;15.248;2023-03-11T07:29:28;95451.31;;;7.00;50.83
13867;BME280;7003;46.982;15.248;2023-03-11T07:31:59;95466.59;;;6.90;51.48
13867;BME280;7003;46.982;15.248;2023-03-11T07:34:31;95485.78;;;6.87;48.46
13867;BME280;7003;46.982;15.248;2023-03-11T07:37:02;95474.50;;;7.06;48.36
13867;BME280;7003;46.982;15.248;2023-03-11T07:39:40;95474.63;;;6.94;52.07
13867;BME280;7003;46.982;15.248;2023-03-11T07:42:11;95479.63;;;6.99;49.47
13867;BME280;7003;46.982;15.248;2023-03-11T07:44:41;95485.63;;;6.96;50.48
13867;BME280;7003;46.982;15.248;2023-03-11T07:47:16;95483.66;;;6.93;52.45
13867;BME280;7003;46.982;15.248;2023-03-11T07:49:51;95483.03;;;7.00;50.10
13867;BME280;7003;46.982;15.248;2023-03-11T07:52:20;95488.50;;;7.07;45.81
13867;BME280;7003;46.982;15.248;2023-03-11T07:54:50;95478.69;;;7.07;47.30
13867;BME280;7003;46.982;15.248;2023-03-11T07:57:19;95497.81;;;7.01;47.36
13867;BME280;7003;46.982;15.248;2023-03-11T07:59:49;95500.94;;;7.06;48.23
13867;BME280;7003;46.982;15.248;2023-03-11T08:02:20;95510.75;;;6.90;50.50
13867;BME280;7003;46.982;15.248;2023-03-11T08:04:48;95521.59;;;7.01;48.80
13867;BME280;7003;46.982;15.248;2023-03-11T08:07:17;95495.66;;;7.22;44.80
13867;BME280;7003;46.982;15.248;2023-03-11T08:09:48;95502.91;;;7.09;47.38
13867;BME280;7003;46.982;15.248;2023-03-11T08:12:18;95499.06;;;7.22;45.14
13867;BME280;7003;46.982;15.248;2023-03-11T08:14:46;95511.44;;;7.18;46.32
13867;BME280;7003;46.982;15.248;2023-03-11T08:17:14;95504.59;;;7.33;45.32
13867;BME280;7003;46.982;15.248;2023-03-11T08:19:42;95494.19;;;7.40;47.30
13867;BME280;7003;46.982;15.248;2023-03-11T08:22:12;95492.41;;;7.79;45.39
13867;BME280;7003;46.982;15.248;2023-03-11T08:24:44;95489.75;;;8.18;42.27
13867;BME280;7003;46.982;15.248;2023-03-11T08:27:12;95496.94;;;8.56;42.67
13867;BME280;7003;46.982;15.248;2023-03-11T08:29:40;95499.44;;;8.91;40.16
13867;BME280;7003;46.982;15.248;2023-03-11T08:32:10;95501.63;;;9.08;43.81
13867;BME280;7003;46.982;15.248;2023-03-11T08:34:38;95497.69;;;9.21;38.96
13867;BME280;7003;46.982;15.248;2023-03-11T08:37:06;95490.88;;;9.23;40.01
13867;BME280;7003;46.982;15.248;2023-03-11T08:39:34;95494.31;;;9.24;39.93
13867;BME280;7003;46.982;15.248;2023-03-11T08:42:06;95520.41;;;9.71;45.08
13867;BME280;7003;46.982;15.248;2023-03-11T08:44:37;95521.78;;;9.88;44.49
13867;BME280;7003;46.982;15.248;2023-03-11T08:47:07;95517.06;;;9.78;39.08
13867;BME280;7003;46.982;15.248;2023-03-11T08:49:37;95513.19;;;9.72;38.61
13867;BME280;7003;46.982;15.248;2023-03-11T08:52:05;95531.47;;;10.29;41.50
13867;BME280;7003;46.982;15.248;2023-03-11T08:54:36;95544.31;;;10.01;36.25
13867;BME280;7003;46.982;15.248;2023-03-11T08:57:04;95538.41;;;10.11;36.12
13867;BME280;7003;46.982;15.248;2023-03-11T08:59:33;95534.47;;;10.01;36.58
13867;BME280;7003;46.982;15.248;2023-03-11T09:02:01;95524.13;;;10.23;37.16
13867;BME280;7003;46.982;15.248;2023-03-11T09:04:29;95531.88;;;10.05;37.04
13867;BME280;7003;46.982;15.248;2023-03-11T09:06:57;95525.09;;;9.81;34.90
13867;BME280;7003;46.982;15.248;2023-03-11T09:09:25;95541.28;;;9.73;35.47
13867;BME280;7003;46.982;15.248;2023-03-11T09:11:56;95539.44;;;10.03;36.82
13867;BME280;7003;46.982;15.248;2023-03-11T09:14:27;95551.00;;;9.88;34.45
13867;BME280;7003;46.982;15.248;2023-03-11T09:16:56;95554.34;;;10.37;37.90
13867;BME280;7003;46.982;15.248;2023-03-11T09:19:25;95556.91;;;10.64;35.26
13867;BME280;7003;46.982;15.248;2023-03-11T09:21:55;95557.94;;;10.56;34.56
13867;BME280;7003;46.982;15.248;2023-03-11T09:24:26;95546.53;;;10.52;34.69
13867;BME280;7003;46.982;15.248;2023-03-11T09:26:54;95560.75;;;10.66;36.53
13867;BME280;7003;46.982;15.248;2023-03-11T09:29:24;95559.00;;;10.48;34.64
13867;BME280;7003;46.982;15.248;2023-03-11T09:31:51;95561.56;;;10.40;34.76
13867;BME280;7003;46.982;15.248;2023-03-11T09:34:24;95572.06;;;10.60;36.24
13867;BME280;7003;46.982;15.248;2023-03-11T09:36:51;95580.34;;;10.55;34.16
13867;BME280;7003;46.982;15.248;2023-03-11T09:39:21;95565.03;;;10.45;34.72
13867;BME280;7003;46.982;15.248;2023-03-11T09:41:53;95580.91;;;10.37;34.15
13867;BME280;7003;46.982;15.248;2023-03-11T09:44:27;95588.56;;;10.43;32.97
13867;BME280;7003;46.982;15.248;2023-03-11T09:47:22;95600.16;;;10.61;33.91
13867;BME280;7003;46.982;15.248;2023-03-11T09:50:10;95599.03;;;10.95;34.97
13867;BME280;7003;46.982;15.248;2023-03-11T09:52:50;95600.69;;;11.07;35.39
13867;BME280;7003;46.982;15.248;2023-03-11T09:55:38;95596.16;;;10.74;34.19
13867;BME280;7003;46.982;15.248;2023-03-11T09:58:12;95606.22;;;10.91;37.08
13867;BME280;7003;46.982;15.248;2023-03-11T10:00:40;95613.44;;;10.57;33.63
13867;BME280;7003;46.982;15.248;2023-03-11T10:03:16;95621.84;;;10.96;34.74
13867;BME280;7003;46.982;15.248;2023-03-11T10:05:50;95613.56;;;11.42;36.33
13867;BME280;7003;46.982;15.248;2023-03-11T10:08:23;95618.22;;;11.11;33.87
13867;BME280;7003;46.982;15.248;2023-03-11T10:10:58;95626.16;;;11.45;34.53
13867;BME280;7003;46.982;15.248;2023-03-11T10:13:33;95627.88;;;11.71;33.91
13867;BME280;7003;46.982;15.248;2023-03-11T10:16:11;95629.75;;;11.23;35.67
13867;BME280;7003;46.982;15.248;2023-03-11T10:18:51;95643.47;;;11.28;33.54
13867;BME280;7003;46.982;15.248;2023-03-11T10:21:34;95636.44;;;11.09;33.53
13867;BME280;7003;46.982;15.248;2023-03-11T10:24:18;95644.09;;;11.14;34.43
13867;BME280;7003;46.982;15.248;2023-03-11T10:26:53;95645.91;;;11.44;37.12
13867;BME280;7003;46.982;15.248;2023-03-11T10:29:27;95650.56;;;11.94;35.74
13867;BME280;7003;46.982;15.248;2023-03-11T10:32:00;95662.75;;;11.55;33.70
13867;BME280;7003;46.982;15.248;2023-03-11T10:34:37;95658.41;;;11.40;35.07
13867;BME280;7003;46.982;15.248;2023-03-11T10:37:15;95651.63;;;11.46;33.93
13867;BME280;7003;46.982;15.248;2023-03-11T10:39:46;95656.59;;;11.84;34.08
13867;BME280;7003;46.982;15.248;2023-03-11T10:42:17;95666.69;;;12.16;35.05
13867;BME280;7003;46.982;15.248;2023-03-11T10:44:47;95647.06;;;11.83;33.14
13867;BME280;7003;46.982;15.248;2023-03-11T10:47:16;95660.56;;;11.64;34.06
13867;BME280;7003;46.982;15.248;2023-03-11T10:49:45;95667.47;;;11.72;33.27
13867;BME280;7003;46.982;15.248;2023-03-11T10:52:17;95673.81;;;11.98;33.77
13867;BME280;7003;46.982;15.248;2023-03-11T10:54:46;95651.56;;;11.76;33.13
13867;BME280;7003;46.982;15.248;2023-03-11T10:57:23;95659.34;;;11.99;33.02
13867;BME280;7003;46.982;15.248;2023-03-11T10:59:53;95660.75;;;11.85;32.23
13867;BME280;7003;46.982;15.248;2023-03-11T11:02:25;95651.97;;;11.81;31.35
13867;BME280;7003;46.982;15.248;2023-03-11T11:05:06;95663.50;;;11.96;31.22
13867;BME280;7003;46.982;15.248;2023-03-11T11:07:37;95670.44;;;11.64;33.32
13867;BME280;7003;46.982;15.248;2023-03-11T11:10:13;95656.50;;;11.37;32.09
13867;BME280;7003;46.982;15.248;2023-03-11T11:13:00;95652.59;;;12.12;33.53
13867;BME280;7003;46.982;15.248;2023-03-11T11:15:33;95665.97;;;12.19;31.84
13867;BME280;7003;46.982;15.248;2023-03-11T11:18:03;95675.53;;;12.27;33.75
13867;BME280;7003;46.982;15.248;2023-03-11T11:20:33;95667.75;;;12.62;30.95
13867;BME280;7003;46.982;15.248;2023-03-11T11:23:05;95650.78;;;13.09;31.44
13867;BME280;7003;46.982;15.248;2023-03-11T11:25:38;95665.34;;;13.19;31.41
13867;BME280;7003;46.982;15.248;2023-03-11T11:28:15;95649.00;;;13.35;31.39
13867;BME280;7003;46.982;15.248;2023-03-11T11:30:54;95656.75;;;12.71;32.73
13867;BME280;7003;46.982;15.248;2023-03-11T11:33:27;95666.88;;;13.13;31.46
13867;BME280;7003;46.982;15.248;2023-03-11T11:35:59;95656.56;;;12.36;30.50
13867;BME280;7003;46.982;15.248;2023-03-11T11:38:30;95670.41;;;12.62;31.44
13867;BME280;7003;46.982;15.248;2023-03-11T11:41:02;95665.56;;;12.17;30.84
13867;BME280;7003;46.982;15.248;2023-03-11T11:43:49;95661.72;;;12.07;29.48
13867;BME280;7003;46.982;15.248;2023-03-11T11:46:23;95651.88;;;12.15;28.90
13867;BME280;7003;46.982;15.248;2023-03-11T11:49:02;95680.78;;;12.78;31.14
13867;BME280;7003;46.982;15.248;2023-03-11T11:51:34;95672.38;;;12.72;31.35
13867;BME280;7003;46.982;15.248;2023-03-11T11:54:14;95671.22;;;13.78;31.38
13867;BME280;7003;46.982;15.248;2023-03-11T11:56:43;95674.59;;;13.39;32.21
13867;BME280;7003;46.982;15.248;2023-03-11T11:59:16;95678.44;;;13.81;30.30
13867;BME280;7003;46.982;15.248;2023-03-11T12:01:55;95685.25;;;13.36;30.18
13867;BME280;7003;46.982;15.248;2023-03-11T12:04:32;95654.06;;;12.71;29.91
13867;BME280;7003;46.982;15.248;2023-03-11T12:07:19;95668.53;;;12.70;28.92
13867;BME280;7003;46.982;15.248;2023-03-11T12:10:22;95674.44;;;13.11;30.91
13867;BME280;7003;46.982;15.248;2023-03-11T12:16:40;95669.28;;;13.68;29.94
13867;BME280;7003;46.982;15.248;2023-03-11T12:19:35;95665.41;;;13.37;27.92
13867;BME280;7003;46.982;15.248;2023-03-11T12:25:38;95674.88;;;13.17;29.60
13867;BME280;7003;46.982;15.248;2023-03-11T12:28:36;95666.75;;;12.92;29.06
13867;BME280;7003;46.982;15.248;2023-03-11T12:31:24;95668.88;;;13.66;29.83
13867;BME280;7003;46.982;15.248;2023-03-11T12:34:13;95665.81;;;13.64;29.92
13867;BME280;7003;46.982;15.248;2023-03-11T12:37:12;95677.66;;;13.52;29.95
13867;BME280;7003;46.982;15.248;2023-03-11T12:43:25;95670.03;;;13.79;27.85
13867;BME280;7003;46.982;15.248;2023-03-11T12:45:55;95659.75;;;12.62;28.12
13867;BME280;7003;46.982;15.248;2023-03-11T12:48:41;95676.91;;;12.65;28.72
13867;BME280;7003;46.982;15.248;2023-03-11T12:51:38;95684.44;;;13.25;28.55
13867;BME280;7003;46.982;15.248;2023-03-11T12:54:28;95697.06;;;13.42;29.14
13867;BME280;7003;46.982;15.248;2023-03-11T12:56:58;95689.28;;;13.01;28.05
13867;BME280;7003;46.982;15.248;2023-03-11T12:59:50;95698.94;;;13.27;30.37
13867;BME280;7003;46.982;15.248;2023-03-11T13:02:40;95695.84;;;13.18;29.80
13867;BME280;7003;46.982;15.248;2023-03-11T13:05:16;95694.06;;;13.58;28.39
13867;BME280;7003;46.982;15.248;2023-03-11T13:07:50;95697.22;;;12.87;29.15
13867;BME280;7003;46.982;15.248;2023-03-11T13:10:43;95697.44;;;13.30;29.40
13867;BME280;7003;46.982;15.248;2023-03-11T13:13:37;95715.63;;;13.10;28.82
13867;BME280;7003;46.982;15.248;2023-03-11T13:16:37;95713.97;;;13.81;29.64
13867;BME280;7003;46.982;15.248;2023-03-11T13:19:35;95715.13;;;14.02;31.76
13867;BME280;7003;46.982;15.248;2023-03-11T13:22:04;95723.06;;;13.63;29.42
13867;BME280;7003;46.982;15.248;2023-03-11T13:24:47;95720.78;;;13.58;29.65
13867;BME280;7003;46.982;15.248;2023-03-11T13:27:32;95729.91;;;13.49;28.07
13867;BME280;7003;46.982;15.248;2023-03-11T13:30:09;95733.81;;;13.80;28.62
13867;BME280;7003;46.982;15.248;2023-03-11T13:33:10;95728.66;;;13.15;27.86
13867;BME280;7003;46.982;15.248;2023-03-11T13:35:53;95743.63;;;13.37;29.43
13867;BME280;7003;46.982;15.248;2023-03-11T13:38:42;95752.88;;;13.68;27.55
13867;BME280;7003;46.982;15.248;2023-03-11T13:41:16;95750.19;;;13.72;29.34
13867;BME280;7003;46.982;15.248;2023-03-11T13:43:48;95751.22;;;13.28;27.05